Time;durP1;ratioP1;P1;durP2;ratioP2;P2;SDS_P1;SDS_P2;PMS_P1;PMS_P2;Temp;Humidity;BMP_temperature;BMP_pressure;BME280_temperature;BME280_humidity;BME280_pressure;Samples;Min_cycle;Max_cycle;Signal;HPM_P1;HPM_P2
2023/10/25 00:00:44;;;;;;;12.25;3.83;;;30.30;31.90;;;;;;5048817;28;20404;-58
2023/10/25 00:03:12;;;;;;;9.25;4.50;;;30.20;33.50;;;;;;5047353;28;20085;-58
2023/10/25 00:05:38;;;;;;;10.00;3.80;;;30.20;33.90;;;;;;5051116;28;20063;-57
2023/10/25 00:08:05;;;;;;;10.13;3.90;;;30.10;34.70;;;;;;5063077;28;20074;-58
2023/10/25 00:10:31;;;;;;;13.77;4.97;;;30.00;35.20;;;;;;5063033;28;20141;-57
2023/10/25 00:12:58;;;;;;;15.98;9.00;;;30.00;35.00;;;;;;5048659;28;20634;-58
2023/10/25 00:15:25;;;;;;;21.45;5.55;;;30.00;35.50;;;;;;5049027;28;20053;-55
2023/10/25 00:17:51;;;;;;;14.13;7.43;;;29.90;36.00;;;;;;5047594;28;20058;-55
2023/10/25 00:20:18;;;;;;;16.23;4.43;;;29.80;35.90;;;;;;5047742;28;20585;-57
2023/10/25 00:22:44;;;;;;;14.45;4.35;;;29.70;35.90;;;;;;5048110;28;20059;-52
2023/10/25 00:25:11;;;;;;;10.05;4.35;;;29.60;35.80;;;;;;5047760;28;20071;-57
2023/10/25 00:27:37;;;;;;;26.88;11.35;;;29.50;35.60;;;;;;5045968;28;20069;-56
2023/10/25 00:30:05;;;;;;;14.63;4.50;;;29.40;35.60;;;;;;5046941;28;20075;-55
2023/10/25 00:32:31;;;;;;;14.60;4.60;;;29.40;35.20;;;;;;5047028;28;20046;-58
2023/10/25 00:34:58;;;;;;;11.18;4.35;;;29.30;35.80;;;;;;5048088;28;20052;-56
2023/10/25 00:37:24;;;;;;;7.38;4.00;;;29.20;36.00;;;;;;5047725;28;20077;-57
2023/10/25 00:39:51;;;;;;;22.00;5.07;;;29.10;35.90;;;;;;5048072;28;20074;-58
2023/10/25 00:42:17;;;;;;;12.52;3.50;;;29.00;36.10;;;;;;5047873;28;20122;-59
2023/10/25 00:44:44;;;;;;;20.70;4.50;;;28.90;35.00;;;;;;5049652;28;20157;-58
2023/10/25 00:47:10;;;;;;;12.50;4.78;;;28.90;35.30;;;;;;5060281;28;20069;-59
2023/10/25 00:49:37;;;;;;;12.88;3.78;;;28.80;36.30;;;;;;5051187;28;20062;-57
2023/10/25 00:52:04;;;;;;;15.55;4.25;;;28.70;36.40;;;;;;5047201;28;20060;-58
2023/10/25 00:54:30;;;;;;;16.98;4.13;;;28.60;37.10;;;;;;5050676;28;20079;-59
2023/10/25 00:56:57;;;;;;;16.48;4.28;;;28.60;36.70;;;;;;5048315;28;20090;-60
2023/10/25 00:59:24;;;;;;;24.02;4.70;;;28.50;37.20;;;;;;5047685;28;20063;-56
2023/10/25 01:01:51;;;;;;;13.90;4.22;;;28.40;37.40;;;;;;5047563;28;20053;-57
2023/10/25 01:04:18;;;;;;;21.77;4.85;;;28.30;37.60;;;;;;5047222;28;20386;-57
2023/10/25 01:06:44;;;;;;;21.27;4.28;;;28.10;37.60;;;;;;5048000;28;20541;-57
2023/10/25 01:09:11;;;;;;;15.18;4.60;;;28.00;37.90;;;;;;5048015;28;20169;-59
2023/10/25 01:11:38;;;;;;;23.92;5.07;;;28.00;38.60;;;;;;5047449;28;20075;-57
2023/10/25 01:14:05;;;;;;;23.33;5.38;;;27.90;38.80;;;;;;5051864;28;20133;-55
2023/10/25 01:16:31;;;;;;;25.52;4.70;;;27.70;39.00;;;;;;5061660;28;20435;-57
2023/10/25 01:18:58;;;;;;;29.98;5.38;;;27.60;39.30;;;;;;5052754;28;20558;-56
2023/10/25 01:21:24;;;;;;;23.52;5.10;;;27.50;39.60;;;;;;5057505;28;20437;-57
2023/10/25 01:23:55;;;;;;;26.20;5.10;;;27.40;39.60;;;;;;5061602;28;20107;-56
2023/10/25 01:26:21;;;;;;;32.60;5.68;;;27.30;39.80;;;;;;5060796;28;20079;-55
2023/10/25 01:28:48;;;;;;;27.90;5.53;;;27.20;39.10;;;;;;5059729;28;20103;-52
2023/10/25 01:31:15;;;;;;;28.33;7.82;;;27.10;39.80;;;;;;5066726;28;20077;-57
2023/10/25 01:33:41;;;;;;;37.60;11.60;;;27.10;39.80;;;;;;5052277;28;20490;-57
2023/10/25 01:36:08;;;;;;;74.15;28.88;;;27.00;40.10;;;;;;5063994;28;20069;-56
2023/10/25 01:38:34;;;;;;;41.80;11.73;;;26.90;40.30;;;;;;5051822;28;21114;-57
2023/10/25 01:41:01;;;;;;;44.00;10.13;;;26.80;41.20;;;;;;5046510;28;20103;-58
2023/10/25 01:43:28;;;;;;;42.80;9.15;;;26.80;41.50;;;;;;5051003;28;20131;-55
2023/10/25 01:45:54;;;;;;;42.58;7.97;;;26.70;41.60;;;;;;5056042;28;20096;-58
2023/10/25 01:48:21;;;;;;;37.03;7.53;;;26.60;41.50;;;;;;5046961;28;20086;-56
2023/10/25 01:50:47;;;;;;;46.22;8.63;;;26.60;41.80;;;;;;5053389;28;20063;-54
2023/10/25 01:53:14;;;;;;;55.60;8.40;;;26.50;41.90;;;;;;5057360;28;20078;-57
2023/10/25 01:55:41;;;;;;;45.85;8.85;;;26.40;42.10;;;;;;5046214;28;20550;-59
2023/10/25 01:58:08;;;;;;;37.35;7.50;;;26.40;42.60;;;;;;5047264;28;20075;-58
2023/10/25 02:00:34;;;;;;;31.80;8.38;;;26.30;42.70;;;;;;5048487;28;20081;-56
2023/10/25 02:03:01;;;;;;;42.80;10.13;;;26.30;42.90;;;;;;5045825;28;20074;-57
2023/10/25 02:05:27;;;;;;;37.53;9.27;;;26.20;44.20;;;;;;5045624;28;20163;-57
2023/10/25 02:07:54;;;;;;;38.15;9.68;;;26.10;43.60;;;;;;5045723;28;20100;-55
2023/10/25 02:10:20;;;;;;;41.92;9.13;;;26.00;44.00;;;;;;5046842;28;20154;-58
2023/10/25 02:12:47;;;;;;;30.45;9.65;;;26.00;43.90;;;;;;5047023;28;20069;-56
2023/10/25 02:15:13;;;;;;;40.97;9.18;;;25.80;44.50;;;;;;5046651;28;20147;-58
2023/10/25 02:17:40;;;;;;;45.03;9.50;;;25.80;45.30;;;;;;5045870;28;20075;-56
2023/10/25 02:20:07;;;;;;;48.20;9.98;;;25.70;44.80;;;;;;5046425;28;20538;-58
2023/10/25 02:22:33;;;;;;;36.42;10.07;;;25.70;45.40;;;;;;5046603;28;20088;-57
2023/10/25 02:25:00;;;;;;;44.65;10.55;;;25.60;45.30;;;;;;5046474;28;20073;-59
2023/10/25 02:27:26;;;;;;;52.70;10.70;;;25.60;45.10;;;;;;5045597;28;20134;-59
2023/10/25 02:29:53;;;;;;;55.25;11.05;;;25.50;45.00;;;;;;5046837;28;20080;-57
2023/10/25 02:32:19;;;;;;;42.78;11.65;;;25.50;45.30;;;;;;5046733;28;20083;-57
2023/10/25 02:34:46;;;;;;;53.30;12.20;;;25.40;45.60;;;;;;5046524;28;20074;-56
2023/10/25 02:37:13;;;;;;;50.13;12.05;;;25.40;45.40;;;;;;5045137;28;20073;-58
2023/10/25 02:39:42;;;;;;;53.88;12.30;;;25.30;46.00;;;;;;5049303;28;20415;-57
2023/10/25 02:42:09;;;;;;;62.83;12.07;;;25.30;46.70;;;;;;5058222;28;20080;-59
2023/10/25 02:44:35;;;;;;;83.45;13.23;;;25.20;47.50;;;;;;5046326;28;20139;-58
2023/10/25 02:47:02;;;;;;;60.17;12.30;;;25.10;46.90;;;;;;5046099;28;20086;-58
2023/10/25 02:49:28;;;;;;;65.57;12.43;;;25.10;47.00;;;;;;5053876;28;20808;-57
2023/10/25 02:51:55;;;;;;;49.00;11.52;;;25.10;47.30;;;;;;5046139;28;20108;-56
2023/10/25 02:54:21;;;;;;;53.85;12.07;;;25.10;47.40;;;;;;5046279;28;20067;-57
2023/10/25 02:56:48;;;;;;;53.05;11.65;;;25.10;47.50;;;;;;5046898;28;20560;-55
2023/10/25 02:59:14;;;;;;;60.95;12.75;;;24.90;47.70;;;;;;5044829;28;20093;-55
2023/10/25 03:01:41;;;;;;;57.05;11.95;;;24.90;48.00;;;;;;5055957;28;20485;-57
2023/10/25 03:04:07;;;;;;;79.65;12.90;;;24.90;48.00;;;;;;5059733;28;20085;-57
2023/10/25 03:06:34;;;;;;;44.42;11.32;;;24.90;47.50;;;;;;5046107;28;20081;-54
2023/10/25 03:09:00;;;;;;;57.35;12.00;;;24.80;48.60;;;;;;5049861;28;20092;-57
2023/10/25 03:11:27;;;;;;;46.65;11.80;;;24.80;48.50;;;;;;5045617;28;20535;-57
2023/10/25 03:13:53;;;;;;;56.80;12.88;;;24.80;48.20;;;;;;5045615;28;20094;-56
2023/10/25 03:16:20;;;;;;;57.03;12.57;;;24.70;48.10;;;;;;5046966;28;20120;-58
2023/10/25 03:18:46;;;;;;;60.95;12.85;;;24.70;47.80;;;;;;5046051;28;20078;-57
2023/10/25 03:21:13;;;;;;;62.92;13.00;;;24.70;48.90;;;;;;5054953;28;20086;-60
2023/10/25 03:23:39;;;;;;;64.97;13.15;;;24.60;49.10;;;;;;5045662;28;20109;-57
2023/10/25 03:26:06;;;;;;;57.30;13.32;;;24.50;49.10;;;;;;5044836;28;20079;-60
2023/10/25 03:28:33;;;;;;;81.20;15.27;;;24.40;49.60;;;;;;5046324;28;20082;-61
2023/10/25 03:31:07;;;;;;;79.70;14.98;;;24.40;49.40;;;;;;5050970;28;20097;-58
2023/10/25 03:33:34;;;;;;;98.25;17.02;;;24.40;49.60;;;;;;5052600;28;20079;-59
2023/10/25 03:36:00;;;;;;;88.88;19.02;;;24.40;50.00;;;;;;5047741;28;20078;-59
2023/10/25 03:38:28;;;;;;;102.80;20.00;;;24.40;48.90;;;;;;5052384;28;20091;-57
2023/10/25 03:41:05;;;;;;;103.78;20.75;;;24.40;48.50;;;;;;5062935;28;20095;-59
2023/10/25 03:43:33;;;;;;;118.50;20.30;;;24.40;48.50;;;;;;5063108;28;20085;-58
2023/10/25 03:46:07;;;;;;;111.15;21.02;;;24.30;48.20;;;;;;5049038;28;20555;-58
2023/10/25 03:48:34;;;;;;;92.63;20.90;;;24.30;48.00;;;;;;5053002;28;20098;-61
2023/10/25 03:51:04;;;;;;;103.13;23.27;;;24.30;47.60;;;;;;5070382;28;20556;-58
2023/10/25 03:53:30;;;;;;;114.10;21.63;;;24.20;47.80;;;;;;5050853;28;20442;-58
2023/10/25 03:55:57;;;;;;;113.25;20.50;;;24.10;47.80;;;;;;5048981;28;20083;-61
2023/10/25 03:58:24;;;;;;;150.70;23.27;;;24.10;47.30;;;;;;5049151;28;20106;-60
2023/10/25 04:01:02;;;;;;;163.27;23.92;;;24.10;46.70;;;;;;5050300;28;20090;-61
2023/10/25 04:03:29;;;;;;;136.75;23.63;;;24.10;46.30;;;;;;5055121;28;20086;-55
2023/10/25 04:05:55;;;;;;;160.82;24.98;;;24.10;47.40;;;;;;5049152;28;20288;-56
2023/10/25 04:08:23;;;;;;;167.43;24.10;;;24.10;46.30;;;;;;5048119;28;20089;-62
2023/10/25 04:10:53;;;;;;;166.98;24.88;;;24.10;45.90;;;;;;5052424;28;20100;-57
2023/10/25 04:13:21;;;;;;;167.77;23.65;;;24.10;45.60;;;;;;5051216;28;20493;-56
2023/10/25 04:16:01;;;;;;;138.80;23.35;;;24.10;46.30;;;;;;5057556;28;20085;-58
2023/10/25 04:18:30;;;;;;;167.38;24.20;;;24.10;45.30;;;;;;5051673;28;20083;-60
2023/10/25 04:20:58;;;;;;;121.85;20.52;;;24.10;45.20;;;;;;5048815;28;20102;-60
2023/10/25 04:23:25;;;;;;;126.05;20.98;;;24.10;44.90;;;;;;5048468;28;20110;-58
2023/10/25 04:25:52;;;;;;;126.32;21.10;;;24.10;44.60;;;;;;5049099;28;20111;-57
2023/10/25 04:28:19;;;;;;;108.47;18.98;;;24.10;44.20;;;;;;5048579;28;20438;-61
2023/10/25 04:30:46;;;;;;;134.90;19.35;;;24.10;44.10;;;;;;5048333;28;20078;-57
2023/10/25 04:33:12;;;;;;;112.07;18.63;;;24.10;44.10;;;;;;5066712;28;20073;-57
2023/10/25 04:35:41;;;;;;;112.47;19.10;;;24.00;44.20;;;;;;5048070;28;20611;-56
2023/10/25 04:38:07;;;;;;;136.20;21.23;;;24.00;44.20;;;;;;5051632;28;20094;-57
2023/10/25 04:40:34;;;;;;;126.63;23.50;;;23.90;44.30;;;;;;5063784;28;20125;-59
2023/10/25 04:43:00;;;;;;;136.35;25.10;;;23.90;44.60;;;;;;5052248;28;20090;-57
2023/10/25 04:45:28;;;;;;;134.27;26.00;;;23.90;45.10;;;;;;5047945;28;20090;-57
2023/10/25 04:47:55;;;;;;;122.60;24.02;;;23.90;45.50;;;;;;5050192;28;21841;-58
2023/10/25 04:50:22;;;;;;;140.98;25.38;;;23.90;47.20;;;;;;5058184;28;20555;-57
2023/10/25 04:52:49;;;;;;;126.35;23.65;;;23.80;47.50;;;;;;5057220;28;20107;-55
2023/10/25 04:55:16;;;;;;;118.03;21.90;;;23.80;47.90;;;;;;5066155;28;20119;-58
2023/10/25 04:57:42;;;;;;;119.60;21.80;;;23.80;46.80;;;;;;5050011;28;20558;-56
2023/10/25 05:00:09;;;;;;;115.65;18.30;;;23.70;45.80;;;;;;5050931;28;20125;-57
2023/10/25 05:02:38;;;;;;;97.32;17.33;;;23.70;45.60;;;;;;5064059;28;20074;-55
2023/10/25 05:05:07;;;;;;;81.72;15.18;;;23.70;45.10;;;;;;5054131;28;20162;-58
2023/10/25 05:07:39;;;;;;;81.40;14.85;;;23.70;45.10;;;;;;5057660;28;20094;-58
2023/10/25 05:10:12;;;;;;;75.20;13.82;;;23.70;45.10;;;;;;5052075;28;20114;-60
2023/10/25 05:12:44;;;;;;;81.25;13.45;;;23.70;45.20;;;;;;5064457;28;20083;-56
2023/10/25 05:15:13;;;;;;;70.80;14.20;;;23.70;45.50;;;;;;5057030;28;20079;-59
2023/10/25 05:17:44;;;;;;;78.78;13.57;;;23.70;46.40;;;;;;5050975;28;20177;-59
2023/10/25 05:20:12;;;;;;;78.68;13.23;;;23.70;47.30;;;;;;5059495;28;20087;-56
2023/10/25 05:22:40;;;;;;;66.75;11.88;;;23.70;47.50;;;;;;5062106;28;20160;-57
2023/10/25 05:25:09;;;;;;;61.50;10.43;;;23.60;46.00;;;;;;5055843;28;20083;-56
2023/10/25 05:27:37;;;;;;;59.03;9.38;;;23.60;46.00;;;;;;5047793;28;20087;-54
2023/10/25 05:30:05;;;;;;;62.88;10.50;;;23.70;45.80;;;;;;5047243;28;20546;-59
2023/10/25 05:32:33;;;;;;;67.22;10.77;;;23.70;46.20;;;;;;5056878;28;20083;-59
2023/10/25 05:35:01;;;;;;;66.93;10.45;;;23.60;47.00;;;;;;5047833;28;20624;-62
2023/10/25 05:37:29;;;;;;;56.65;11.40;;;23.60;47.70;;;;;;5056892;28;20535;-60
2023/10/25 05:39:55;;;;;;;69.65;20.83;;;23.60;46.70;;;;;;5053789;28;20510;-55
2023/10/25 05:42:24;;;;;;;55.03;10.38;;;23.60;46.00;;;;;;5053718;28;20137;-59
2023/10/25 05:44:53;;;;;;;56.33;8.85;;;23.60;45.60;;;;;;5050643;28;20585;-59
2023/10/25 05:47:21;;;;;;;56.22;8.98;;;23.60;45.50;;;;;;5049562;28;20174;-59
2023/10/25 05:49:49;;;;;;;77.18;9.73;;;23.50;45.50;;;;;;5049472;28;20078;-59
2023/10/25 05:52:16;;;;;;;57.22;9.93;;;23.60;45.40;;;;;;5046682;28;20469;-57
2023/10/25 05:54:43;;;;;;;51.92;9.00;;;23.60;45.40;;;;;;5046029;28;20075;-57
2023/10/25 05:57:10;;;;;;;53.03;8.80;;;23.60;45.70;;;;;;5047477;28;20083;-55
2023/10/25 05:59:36;;;;;;;50.75;8.07;;;23.60;45.80;;;;;;5058374;28;20089;-57
2023/10/25 06:02:10;;;;;;;51.58;7.70;;;23.70;46.00;;;;;;5049393;28;20507;-55
2023/10/25 06:04:39;;;;;;;37.30;7.10;;;23.60;46.30;;;;;;5045727;28;20075;-57
2023/10/25 06:07:07;;;;;;;41.03;8.18;;;23.70;46.90;;;;;;5046434;28;20075;-56
2023/10/25 06:09:34;;;;;;;38.30;7.70;;;23.70;47.20;;;;;;5046508;28;20698;-60
2023/10/25 06:12:02;;;;;;;38.58;7.78;;;23.70;47.60;;;;;;5049659;28;20594;-57
2023/10/25 06:14:32;;;;;;;30.58;7.28;;;23.70;47.90;;;;;;5046756;28;20572;-59
2023/10/25 06:16:59;;;;;;;32.13;6.55;;;23.60;48.40;;;;;;5045744;28;20134;-57
2023/10/25 06:19:26;;;;;;;38.25;7.13;;;23.60;48.70;;;;;;5049128;28;20135;-56
2023/10/25 06:21:53;;;;;;;27.63;6.72;;;23.60;49.30;;;;;;5045860;28;20087;-58
2023/10/25 06:24:20;;;;;;;28.35;6.55;;;23.60;49.60;;;;;;5045937;28;20543;-59
2023/10/25 06:26:47;;;;;;;39.80;6.53;;;23.50;49.90;;;;;;5045621;28;20087;-56
2023/10/25 06:29:13;;;;;;;40.22;7.20;;;23.50;51.30;;;;;;5046218;28;20114;-55
2023/10/25 06:31:40;;;;;;;44.47;7.25;;;23.50;50.00;;;;;;5046248;28;20170;-56
2023/10/25 06:34:06;;;;;;;35.53;6.88;;;23.50;50.00;;;;;;5045530;28;20121;-58
2023/10/25 06:36:34;;;;;;;33.72;5.90;;;23.50;50.10;;;;;;5045535;28;20073;-57
2023/10/25 06:39:04;;;;;;;39.88;6.43;;;23.50;50.30;;;;;;5045277;28;20111;-57
2023/10/25 06:41:34;;;;;;;38.17;6.00;;;23.50;50.30;;;;;;5043810;28;20177;-56
2023/10/25 06:44:01;;;;;;;32.30;5.88;;;23.50;50.50;;;;;;5049171;28;20457;-55
2023/10/25 06:46:28;;;;;;;28.40;5.80;;;23.50;50.60;;;;;;5046004;28;20424;-56
2023/10/25 06:48:56;;;;;;;23.33;5.65;;;23.50;50.70;;;;;;5046018;28;20546;-55
2023/10/25 06:51:23;;;;;;;24.10;5.20;;;23.40;51.10;;;;;;5045314;28;20110;-55
2023/10/25 06:53:49;;;;;;;26.70;5.50;;;23.40;51.10;;;;;;5044882;28;20690;-55
2023/10/25 06:56:16;;;;;;;47.17;5.97;;;23.30;51.40;;;;;;5046326;28;20086;-57
2023/10/25 06:58:43;;;;;;;23.45;6.35;;;23.30;51.20;;;;;;5045939;28;20093;-58
2023/10/25 07:01:13;;;;;;;31.65;6.13;;;23.30;51.10;;;;;;5045745;28;20107;-55
2023/10/25 07:03:46;;;;;;;35.35;7.07;;;23.30;50.90;;;;;;5044875;28;20491;-61
2023/10/25 07:06:15;;;;;;;26.05;7.72;;;23.30;50.50;;;;;;5046971;28;20503;-58
2023/10/25 07:08:42;;;;;;;38.22;9.27;;;23.30;50.40;;;;;;5052287;28;20092;-56
2023/10/25 07:11:09;;;;;;;35.25;9.07;;;23.20;50.10;;;;;;5050502;28;20183;-57
2023/10/25 07:13:35;;;;;;;30.77;8.07;;;23.20;50.00;;;;;;5049250;28;20115;-56
2023/10/25 07:16:02;;;;;;;32.47;8.95;;;23.10;50.00;;;;;;5049254;28;20134;-55
2023/10/25 07:18:28;;;;;;;30.48;8.95;;;23.10;50.50;;;;;;5049877;28;20075;-57
2023/10/25 07:20:56;;;;;;;40.90;9.45;;;23.10;50.20;;;;;;5049533;28;20086;-59
2023/10/25 07:23:22;;;;;;;30.15;9.05;;;23.00;50.00;;;;;;5049049;28;20079;-56
2023/10/25 07:25:48;;;;;;;30.38;9.05;;;22.90;50.10;;;;;;5048805;28;20075;-58
2023/10/25 07:28:15;;;;;;;32.85;9.40;;;22.90;50.20;;;;;;5049544;28;20089;-57
2023/10/25 07:30:42;;;;;;;36.40;9.75;;;22.80;50.50;;;;;;5049434;28;20169;-58
2023/10/25 07:33:10;;;;;;;31.55;9.20;;;22.80;50.90;;;;;;5048444;28;20097;-58
2023/10/25 07:35:36;;;;;;;38.97;9.02;;;22.80;51.10;;;;;;5048256;28;20077;-57
2023/10/25 07:38:02;;;;;;;28.15;7.82;;;22.70;51.40;;;;;;5049769;28;20082;-57
2023/10/25 07:40:29;;;;;;;30.80;8.60;;;22.70;52.00;;;;;;5052536;28;20095;-57
2023/10/25 07:42:55;;;;;;;27.33;8.70;;;22.60;52.30;;;;;;5050485;28;20570;-56
2023/10/25 07:45:22;;;;;;;21.88;8.63;;;22.60;52.00;;;;;;5049585;28;20598;-54
2023/10/25 07:47:49;;;;;;;33.50;9.38;;;22.60;52.00;;;;;;5048722;28;20104;-59
2023/10/25 07:50:18;;;;;;;34.88;9.32;;;22.60;51.90;;;;;;5050044;28;20448;-55
2023/10/25 07:52:45;;;;;;;31.17;9.13;;;22.50;52.00;;;;;;5049662;28;20088;-60
2023/10/25 07:55:12;;;;;;;30.35;9.35;;;22.50;52.90;;;;;;5051298;28;20075;-58
2023/10/25 07:57:38;;;;;;;25.42;8.90;;;22.40;52.80;;;;;;5048996;28;20076;-56
2023/10/25 08:00:06;;;;;;;37.17;10.32;;;22.40;53.10;;;;;;5048854;28;20099;-55
2023/10/25 08:02:32;;;;;;;35.25;9.75;;;22.20;52.90;;;;;;5046398;28;20085;-56
2023/10/25 08:04:59;;;;;;;29.60;9.40;;;22.20;52.90;;;;;;5048642;28;20123;-57
2023/10/25 08:07:26;;;;;;;38.95;9.23;;;22.10;52.70;;;;;;5048326;28;20084;-54
2023/10/25 08:09:52;;;;;;;36.20;9.73;;;22.10;52.80;;;;;;5048244;28;20115;-58
2023/10/25 08:12:19;;;;;;;35.70;9.73;;;22.00;53.30;;;;;;5048545;28;20495;-59
2023/10/25 08:14:45;;;;;;;35.25;9.63;;;22.00;53.60;;;;;;5049173;28;20104;-57
2023/10/25 08:17:12;;;;;;;33.55;11.05;;;22.00;53.50;;;;;;5047788;28;20076;-55
2023/10/25 08:19:38;;;;;;;34.28;9.80;;;21.90;53.10;;;;;;5048612;28;20194;-58
2023/10/25 08:22:05;;;;;;;34.45;9.73;;;21.90;53.00;;;;;;5048179;28;20170;-57
2023/10/25 08:24:33;;;;;;;35.15;10.32;;;21.90;53.10;;;;;;5048503;28;20094;-55
2023/10/25 08:26:59;;;;;;;36.17;10.70;;;21.90;52.80;;;;;;5047854;28;20171;-58
2023/10/25 08:29:26;;;;;;;37.17;10.80;;;21.80;52.80;;;;;;5049405;28;20137;-56
2023/10/25 08:31:52;;;;;;;34.03;10.82;;;21.80;53.30;;;;;;5047690;28;20111;-57
2023/10/25 08:34:19;;;;;;;29.90;10.18;;;21.80;53.60;;;;;;5047176;28;20080;-56
2023/10/25 08:36:45;;;;;;;32.53;11.02;;;21.70;53.80;;;;;;5048397;28;20472;-57
2023/10/25 08:39:12;;;;;;;41.10;11.65;;;21.80;54.10;;;;;;5048197;28;20084;-57
2023/10/25 08:41:40;;;;;;;26.48;10.95;;;21.70;54.30;;;;;;5047536;28;20101;-57
2023/10/25 08:44:08;;;;;;;32.10;11.18;;;21.70;54.00;;;;;;5047399;28;20545;-58
2023/10/25 08:46:35;;;;;;;32.50;11.40;;;21.70;53.90;;;;;;5049376;28;20175;-57
2023/10/25 08:49:01;;;;;;;43.15;11.95;;;21.60;54.10;;;;;;5050166;28;20104;-63
2023/10/25 08:51:28;;;;;;;49.00;13.10;;;21.50;54.00;;;;;;5048133;28;20488;-57
2023/10/25 08:53:59;;;;;;;42.05;13.30;;;21.50;54.10;;;;;;5048446;28;20427;-56
2023/10/25 08:56:26;;;;;;;36.22;12.27;;;21.50;54.20;;;;;;5048071;28;20142;-58
2023/10/25 08:58:52;;;;;;;34.97;12.90;;;21.50;53.90;;;;;;5046985;28;20085;-57
2023/10/25 09:01:19;;;;;;;32.45;12.32;;;21.40;53.90;;;;;;5048167;28;20112;-57
2023/10/25 09:03:45;;;;;;;35.67;12.35;;;21.40;54.60;;;;;;5047669;28;20097;-58
2023/10/25 09:06:22;;;;;;;42.58;12.73;;;21.40;54.40;;;;;;5046913;28;20085;-58
2023/10/25 09:08:56;;;;;;;;;;;21.40;54.30;;;;;;5047896;28;20091;-54
2023/10/25 09:11:23;;;;;;;30.48;12.05;;;21.30;55.20;;;;;;5047383;28;19972;-55
2023/10/25 09:13:56;;;;;;;38.40;11.73;;;21.20;55.00;;;;;;5047726;28;20081;-58
2023/10/25 09:16:27;;;;;;;35.10;12.48;;;21.20;54.90;;;;;;5046804;28;21075;-57
2023/10/25 09:18:53;;;;;;;36.33;11.45;;;21.20;55.20;;;;;;5048640;28;20079;-57
2023/10/25 09:21:27;;;;;;;32.28;12.02;;;21.10;55.30;;;;;;5046503;28;20116;-55
2023/10/25 09:23:59;;;;;;;40.75;11.75;;;21.20;55.60;;;;;;5045364;28;20112;-58
2023/10/25 09:26:32;;;;;;;43.05;12.77;;;21.10;55.80;;;;;;5045884;28;20096;-58
2023/10/25 09:28:58;;;;;;;54.35;12.27;;;21.10;55.70;;;;;;5046659;28;20194;-58
2023/10/25 09:31:28;;;;;;;41.58;13.20;;;21.10;55.30;;;;;;5046323;28;20230;-59
2023/10/25 09:33:59;;;;;;;54.88;11.50;;;21.00;56.00;;;;;;5044674;28;20108;-57
2023/10/25 09:36:26;;;;;;;41.10;11.77;;;21.00;56.20;;;;;;5047034;28;20091;-55
2023/10/25 09:38:53;;;;;;;58.70;11.70;;;21.10;56.20;;;;;;5046355;28;20184;-59
2023/10/25 09:41:21;;;;;;;54.63;11.32;;;21.10;56.60;;;;;;5047158;28;20100;-58
2023/10/25 09:43:49;;;;;;;37.33;11.15;;;21.00;57.50;;;;;;5046843;28;20167;-58
2023/10/25 09:46:20;;;;;;;32.53;10.00;;;21.00;58.10;;;;;;5045771;28;20090;-58
2023/10/25 09:49:04;;;;;;;29.73;8.35;;;21.00;58.90;;;;;;5048155;28;20087;-57
2023/10/25 09:51:58;;;;;;;34.05;7.80;;;20.90;59.60;;;;;;5046557;28;20514;-57
2023/10/25 09:54:36;;;;;;;24.15;6.75;;;20.80;60.80;;;;;;5045461;28;20088;-57
2023/10/25 09:57:04;;;;;;;31.30;7.32;;;20.80;61.90;;;;;;5046385;28;20076;-58
2023/10/25 09:59:34;;;;;;;38.55;7.00;;;20.60;62.40;;;;;;5047140;28;20087;-58
2023/10/25 10:02:07;;;;;;;20.10;5.88;;;20.60;63.20;;;;;;5047567;28;20080;-57
2023/10/25 10:04:42;;;;;;;24.63;6.18;;;20.60;63.50;;;;;;5045866;28;21046;-59
2023/10/25 10:07:27;;;;;;;25.85;6.60;;;20.50;63.70;;;;;;5053298;28;20130;-59
2023/10/25 10:09:59;;;;;;;21.33;6.40;;;20.50;64.10;;;;;;5045210;28;20133;-58
2023/10/25 10:12:26;;;;;;;28.58;6.53;;;20.40;64.70;;;;;;5048248;28;20163;-56
2023/10/25 10:14:53;;;;;;;20.75;6.03;;;20.40;64.70;;;;;;5047384;28;20552;-54
2023/10/25 10:17:19;;;;;;;24.08;6.40;;;20.30;64.90;;;;;;5046207;28;20098;-56
2023/10/25 10:19:53;;;;;;;22.38;6.68;;;20.30;65.30;;;;;;5044789;28;20097;-54
2023/10/25 10:22:20;;;;;;;32.00;6.63;;;20.30;65.60;;;;;;5048898;28;20097;-57
2023/10/25 10:24:49;;;;;;;26.85;6.32;;;20.30;66.00;;;;;;5046224;28;20090;-58
2023/10/25 10:27:42;;;;;;;24.33;6.28;;;20.30;66.20;;;;;;5045407;28;20142;-57
2023/10/25 10:30:41;;;;;;;20.25;6.03;;;20.30;66.40;;;;;;5048889;28;20107;-57
2023/10/25 10:33:14;;;;;;;22.95;5.88;;;20.30;66.20;;;;;;5043331;28;20127;-58
2023/10/25 10:35:49;;;;;;;20.77;5.75;;;20.20;66.20;;;;;;5044984;28;20526;-57
2023/10/25 10:38:16;;;;;;;20.58;5.82;;;20.30;66.30;;;;;;5043001;28;20629;-56
2023/10/25 10:40:42;;;;;;;19.13;6.00;;;20.30;66.50;;;;;;5042030;28;20138;-56
2023/10/25 10:43:09;;;;;;;20.17;6.15;;;20.20;66.80;;;;;;5043441;28;20135;-55
2023/10/25 10:45:35;;;;;;;20.08;6.50;;;20.20;67.30;;;;;;5044559;28;20556;-58
2023/10/25 10:48:19;;;;;;;25.33;6.47;;;20.10;67.70;;;;;;5044390;28;20146;-58
2023/10/25 10:50:49;;;;;;;20.42;6.20;;;20.10;68.00;;;;;;5043100;28;20582;-58
2023/10/25 10:53:15;;;;;;;30.92;6.57;;;20.10;67.80;;;;;;5042928;28;20080;-57
2023/10/25 10:55:44;;;;;;;20.00;6.20;;;20.10;68.20;;;;;;5043599;28;20175;-57
2023/10/25 10:58:11;;;;;;;22.27;5.97;;;20.10;68.30;;;;;;5042509;28;20967;-57
2023/10/25 11:00:39;;;;;;;18.48;6.50;;;20.10;68.20;;;;;;5043249;28;20618;-55
2023/10/25 11:03:05;;;;;;;25.60;7.30;;;20.10;68.10;;;;;;5026537;28;20092;-59
2023/10/25 11:05:32;;;;;;;19.33;5.70;;;20.10;68.00;;;;;;5042505;28;20095;-55
2023/10/25 11:07:58;;;;;;;24.15;7.53;;;20.10;68.20;;;;;;5043963;28;20470;-56
2023/10/25 11:10:25;;;;;;;26.52;7.30;;;20.10;68.40;;;;;;5044601;28;20086;-56
2023/10/25 11:12:51;;;;;;;19.80;6.88;;;20.10;68.60;;;;;;5045135;28;20069;-57
2023/10/25 11:15:19;;;;;;;30.25;7.32;;;20.00;68.90;;;;;;5045746;28;20142;-58
2023/10/25 11:17:46;;;;;;;18.48;6.88;;;20.00;69.60;;;;;;5044671;28;20125;-56
2023/10/25 11:20:13;;;;;;;24.08;7.10;;;19.90;69.90;;;;;;5044318;28;20080;-55
2023/10/25 11:22:39;;;;;;;25.67;7.25;;;19.90;70.40;;;;;;5046016;28;20084;-57
2023/10/25 11:25:10;;;;;;;30.20;7.43;;;19.80;70.50;;;;;;5045365;28;20163;-57
2023/10/25 11:27:37;;;;;;;26.15;7.03;;;19.80;71.30;;;;;;5047209;28;20088;-55
2023/10/25 11:30:08;;;;;;;22.50;7.18;;;19.80;70.90;;;;;;5045037;28;20092;-53
2023/10/25 11:32:34;;;;;;;17.98;7.35;;;19.80;71.20;;;;;;5043674;28;20084;-55
2023/10/25 11:35:02;;;;;;;30.13;7.32;;;19.80;71.20;;;;;;5046022;28;20187;-55
2023/10/25 11:37:45;;;;;;;25.42;7.28;;;19.80;71.00;;;;;;5045202;28;20137;-56
2023/10/25 11:40:11;;;;;;;26.98;8.50;;;19.60;71.70;;;;;;5043788;28;20103;-58
2023/10/25 11:42:38;;;;;;;23.08;8.10;;;19.60;72.00;;;;;;5044181;28;20099;-56
2023/10/25 11:45:06;;;;;;;26.05;8.23;;;19.70;73.00;;;;;;5046171;28;20084;-57
2023/10/25 11:47:33;;;;;;;19.88;7.00;;;19.60;73.00;;;;;;5048045;28;20080;-57
2023/10/25 11:50:00;;;;;;;19.95;6.50;;;19.50;73.10;;;;;;5046461;28;20159;-55
2023/10/25 11:52:28;;;;;;;24.95;7.03;;;19.40;73.70;;;;;;5046850;28;20085;-57
2023/10/25 11:54:57;;;;;;;22.73;6.10;;;19.60;74.50;;;;;;5048681;28;20095;-58
2023/10/25 11:57:32;;;;;;;17.73;5.28;;;19.60;74.10;;;;;;5047727;28;20091;-57
2023/10/25 11:59:58;;;;;;;22.33;5.10;;;19.60;73.90;;;;;;5048562;28;20501;-59
2023/10/25 12:02:26;;;;;;;14.23;5.13;;;19.60;74.20;;;;;;5048478;28;20118;-56
2023/10/25 12:04:54;;;;;;;16.40;5.03;;;19.60;74.40;;;;;;5051163;28;20091;-57
2023/10/25 12:07:21;;;;;;;21.80;10.13;;;19.70;74.60;;;;;;5048841;28;20461;-56
2023/10/25 12:09:51;;;;;;;18.77;5.35;;;19.50;74.50;;;;;;5049403;28;20088;-60
2023/10/25 12:12:18;;;;;;;15.05;4.75;;;19.50;75.00;;;;;;5049493;28;20072;-57
2023/10/25 12:14:45;;;;;;;22.60;4.95;;;19.50;75.20;;;;;;5048212;28;20080;-56
2023/10/25 12:17:11;;;;;;;18.35;4.95;;;19.60;75.30;;;;;;5048395;28;20084;-58
2023/10/25 12:19:41;;;;;;;17.90;5.57;;;19.60;75.80;;;;;;5048591;28;20551;-57
2023/10/25 12:22:09;;;;;;;18.80;5.50;;;19.60;75.70;;;;;;5049403;28;20521;-58
2023/10/25 12:24:37;;;;;;;13.65;4.22;;;19.60;75.60;;;;;;5048048;28;20088;-56
2023/10/25 12:27:05;;;;;;;17.48;4.93;;;19.50;75.90;;;;;;5048709;28;20471;-58
2023/10/25 12:29:32;;;;;;;18.60;4.90;;;19.50;76.20;;;;;;5051344;28;20543;-57
2023/10/25 12:31:58;;;;;;;19.45;5.35;;;19.50;77.30;;;;;;5050776;28;20171;-57
2023/10/25 12:34:25;;;;;;;16.85;5.18;;;19.40;76.80;;;;;;5048168;28;20103;-57
2023/10/25 12:36:52;;;;;;;16.45;5.55;;;19.20;77.30;;;;;;5047988;28;20083;-55